createdAt,value
2022-12-22T00:01:11.117Z,100278.91
2022-12-22T00:03:01.979Z,100283.03
2022-12-22T00:04:52.493Z,100271.97
2022-12-22T00:06:43.371Z,100274.09
2022-12-22T00:08:33.630Z,100277.56
2022-12-22T00:10:24.342Z,100269.09
2022-12-22T00:12:15.067Z,100269.00
2022-12-22T00:14:05.940Z,100271.69
2022-12-22T00:15:56.580Z,100267.31
2022-12-22T00:17:47.741Z,100277.47
2022-12-22T00:19:38.474Z,100270.75
2022-12-22T00:21:31.698Z,100271.69
2022-12-22T00:23:23.167Z,100273.41
2022-12-22T00:25:14.013Z,100275.78
2022-12-22T00:27:04.810Z,100271.63
2022-12-22T00:28:55.522Z,100265.69
2022-12-22T00:30:46.202Z,100266.63
2022-12-22T00:32:39.322Z,100263.25
2022-12-22T00:34:40.178Z,100269.25
2022-12-22T00:36:31.698Z,100271.72
2022-12-22T00:38:34.204Z,100263.16
2022-12-22T00:40:35.624Z,100263.25
2022-12-22T00:42:26.384Z,100264.06
2022-12-22T00:44:16.969Z,100269.84
2022-12-22T00:46:08.138Z,100262.94
2022-12-22T00:47:58.468Z,100260.31
2022-12-22T00:49:51.105Z,100263.84
2022-12-22T00:51:41.812Z,100263.69
2022-12-22T00:55:06.844Z,100251.75
2022-12-22T00:56:57.508Z,100258.75
2022-12-22T00:58:48.147Z,100258.00
2022-12-22T01:00:39.073Z,100252.94
2022-12-22T01:02:29.986Z,100260.47
2022-12-22T01:04:20.656Z,100250.25
2022-12-22T01:06:11.335Z,100250.31
2022-12-22T01:08:02.054Z,100245.31
2022-12-22T01:09:52.835Z,100248.72
2022-12-22T01:11:43.586Z,100240.25
2022-12-22T01:13:37.457Z,100237.03
2022-12-22T01:15:33.290Z,100237.09
2022-12-22T01:17:23.654Z,100230.03
2022-12-22T01:19:14.217Z,100232.50
2022-12-22T01:21:04.806Z,100228.16
2022-12-22T01:22:55.406Z,100228.16
2022-12-22T01:24:47.043Z,100224.78
2022-12-22T01:26:38.740Z,100219.63
2022-12-22T01:28:37.936Z,100218.84
2022-12-22T01:30:29.543Z,100219.41
2022-12-22T01:32:20.027Z,100214.22
2022-12-22T01:34:10.683Z,100216.56
2022-12-22T01:36:01.355Z,100212.38
2022-12-22T01:37:52.074Z,100214.91
2022-12-22T01:39:42.941Z,100211.53
2022-12-22T01:41:38.366Z,100209.00
2022-12-22T01:43:39.538Z,100215.00
2022-12-22T01:45:41.404Z,100209.94
2022-12-22T01:47:47.229Z,100196.22
2022-12-22T01:49:41.414Z,100190.97
2022-12-22T01:51:54.807Z,100194.44
2022-12-22T01:53:46.732Z,100195.34
2022-12-22T01:55:40.341Z,100189.22
2022-12-22T01:57:30.605Z,100193.28
2022-12-22T01:59:23.325Z,100193.44
2022-12-22T02:01:13.726Z,100187.38
2022-12-22T02:03:04.421Z,100183.16
2022-12-22T02:04:59.754Z,100174.75
2022-12-22T02:06:59.961Z,100177.13
2022-12-22T02:08:55.664Z,100178.84
2022-12-22T02:11:04.182Z,100176.97
2022-12-22T02:13:17.430Z,100172.66
2022-12-22T02:15:21.264Z,100174.34
2022-12-22T02:17:20.658Z,100173.44
2022-12-22T02:19:15.438Z,100168.34
2022-12-22T02:21:12.147Z,100169.06
2022-12-22T02:23:19.340Z,100166.41
2022-12-22T02:25:16.974Z,100166.06
2022-12-22T02:27:11.672Z,100168.44
2022-12-22T02:29:03.257Z,100163.22
2022-12-22T02:30:54.909Z,100163.81
2022-12-22T02:32:45.693Z,100162.69
2022-12-22T02:34:36.425Z,100164.38
2022-12-22T02:36:55.658Z,100171.31
2022-12-22T02:38:55.814Z,100160.84
2022-12-22T02:41:09.402Z,100161.53
2022-12-22T02:43:10.142Z,100159.59
2022-12-22T02:45:57.923Z,100158.91
2022-12-22T02:47:56.390Z,100157.88
2022-12-22T02:50:00.402Z,100157.81
2022-12-22T02:51:54.799Z,100156.28
2022-12-22T02:53:46.097Z,100151.06
2022-12-22T02:59:07.518Z,100150.50
2022-12-22T03:00:58.802Z,100161.88
2022-12-22T03:02:49.452Z,100155.09
2022-12-22T03:04:40.418Z,100158.28
2022-12-22T03:06:30.672Z,100146.97
2022-12-22T03:08:21.034Z,100156.16
2022-12-22T03:10:11.657Z,100163.75
2022-12-22T03:12:02.109Z,100166.41
2022-12-22T03:13:52.501Z,100162.25
2022-12-22T03:15:43.049Z,100159.03
2022-12-22T03:17:33.905Z,100168.91
2022-12-22T03:19:24.233Z,100162.06
2022-12-22T03:21:15.793Z,100156.16
2022-12-22T03:23:06.250Z,100163.44
2022-12-22T03:24:56.835Z,100162.44
2022-12-22T03:26:29.513Z,100166.59
2022-12-22T03:28:07.603Z,100163.38
2022-12-22T03:29:39.609Z,100164.09
2022-12-22T03:31:11.865Z,100167.63
2022-12-22T03:32:43.903Z,100162.66
2022-12-22T03:34:16.037Z,100168.66
2022-12-22T03:35:48.045Z,100160.84
2022-12-22T03:37:20.041Z,100160.03
2022-12-22T03:38:52.124Z,100162.56
2022-12-22T03:40:24.293Z,100154.19
2022-12-22T03:42:22.299Z,100161.91
2022-12-22T03:44:13.133Z,100153.97
2022-12-22T03:46:03.560Z,100147.78
2022-12-22T03:47:35.577Z,100150.97
2022-12-22T03:49:10.324Z,100145.91
2022-12-22T03:50:42.334Z,100146.84
2022-12-22T03:52:14.326Z,100147.44
2022-12-22T03:53:46.326Z,100148.19
2022-12-22T03:55:18.297Z,100142.94
2022-12-22T03:56:51.116Z,100143.00
2022-12-22T03:58:23.215Z,100145.53
2022-12-22T03:59:55.377Z,100143.13
2022-12-22T04:01:27.527Z,100141.53
2022-12-22T04:02:59.740Z,100147.53
2022-12-22T04:04:31.962Z,100141.72
2022-12-22T04:06:04.150Z,100140.94
2022-12-22T04:07:36.352Z,100138.59
2022-12-22T04:09:08.415Z,100141.19
2022-12-22T04:11:01.909Z,100146.38
2022-12-22T04:12:52.593Z,100138.66
2022-12-22T04:14:28.112Z,100134.38
2022-12-22T04:16:05.519Z,100132.50
2022-12-22T04:17:37.486Z,100134.00
2022-12-22T04:19:10.367Z,100128.78
2022-12-22T04:20:42.340Z,100146.31
2022-12-22T04:22:14.814Z,100130.94
2022-12-22T04:23:49.089Z,100132.59
2022-12-22T04:25:21.146Z,100142.94
2022-12-22T04:26:53.193Z,100134.47
2022-12-22T04:28:25.277Z,100136.19
2022-12-22T04:29:57.297Z,100134.31
2022-12-22T04:31:29.553Z,100141.00
2022-12-22T04:33:01.576Z,100135.72
2022-12-22T04:34:33.637Z,100144.25
2022-12-22T04:36:06.076Z,100146.78
2022-12-22T04:37:38.216Z,100140.72
2022-12-22T04:39:10.301Z,100134.69
2022-12-22T04:40:42.255Z,100134.78
2022-12-22T04:42:14.288Z,100137.41
2022-12-22T04:43:46.307Z,100139.19
2022-12-22T04:45:18.366Z,100137.59
2022-12-22T04:46:50.374Z,100131.69
2022-12-22T04:48:23.182Z,100136.81
2022-12-22T04:49:56.034Z,100139.28
2022-12-22T04:51:28.902Z,100135.91
2022-12-22T04:53:00.929Z,100137.53
2022-12-22T04:54:33.041Z,100130.59
2022-12-22T04:56:07.765Z,100133.19
2022-12-22T04:57:41.092Z,100129.66
2022-12-22T04:59:13.240Z,100124.09
2022-12-22T05:00:45.300Z,100118.69
2022-12-22T05:02:17.545Z,100121.94
2022-12-22T05:03:49.797Z,100124.22
2022-12-22T05:05:21.862Z,100122.47
2022-12-22T05:06:53.928Z,100120.59
2022-12-22T05:08:25.992Z,100114.59
2022-12-22T05:09:58.021Z,100119.81
2022-12-22T05:11:30.115Z,100119.94
2022-12-22T05:13:02.168Z,100119.22
2022-12-22T05:14:34.156Z,100115.75
2022-12-22T05:16:07.549Z,100119.06
2022-12-22T05:17:39.687Z,100113.16
2022-12-22T05:19:12.005Z,100112.28
2022-12-22T05:20:44.126Z,100115.81
2022-12-22T05:22:16.154Z,100118.28
2022-12-22T05:23:48.448Z,100118.34
2022-12-22T05:25:20.805Z,100117.41
2022-12-22T05:26:52.823Z,100120.66
2022-12-22T05:28:24.881Z,100119.88
2022-12-22T05:29:56.847Z,100123.28
2022-12-22T05:31:28.897Z,100119.16
2022-12-22T05:33:01.017Z,100122.53
2022-12-22T05:34:32.995Z,100122.53
2022-12-22T05:36:05.224Z,100118.34
2022-12-22T05:37:37.233Z,100116.63
2022-12-22T05:39:09.463Z,100114.88
2022-12-22T05:40:41.450Z,100118.06
2022-12-22T05:42:13.445Z,100124.72
2022-12-22T05:43:45.453Z,100120.66
2022-12-22T05:45:19.619Z,100125.94
2022-12-22T05:46:55.054Z,100121.78
2022-12-22T05:48:30.984Z,100116.75
2022-12-22T05:50:07.915Z,100123.63
2022-12-22T05:51:39.878Z,100123.53
2022-12-22T05:53:12.022Z,100125.22
2022-12-22T05:54:44.093Z,100117.63
2022-12-22T05:56:16.309Z,100116.63
2022-12-22T05:57:48.312Z,100120.56
2022-12-22T05:59:20.327Z,100133.97
2022-12-22T06:00:52.461Z,100125.25
2022-12-22T06:02:24.844Z,100126.06
2022-12-22T06:04:00.405Z,100124.31
2022-12-22T06:05:32.998Z,100122.44
2022-12-22T06:07:05.093Z,100132.78
2022-12-22T06:08:37.142Z,100126.94
2022-12-22T06:10:12.677Z,100127.00
2022-12-22T06:11:45.258Z,100137.91
2022-12-22T06:13:17.388Z,100137.06
2022-12-22T06:14:49.469Z,100135.31
2022-12-22T06:16:21.609Z,100124.31
2022-12-22T06:17:53.654Z,100127.78
2022-12-22T06:19:25.785Z,100133.78
2022-12-22T06:20:57.953Z,100140.59
2022-12-22T06:22:30.042Z,100129.59
2022-12-22T06:25:34.961Z,100127.13
2022-12-22T06:27:07.021Z,100129.19
2022-12-22T06:28:39.052Z,100125.06
2022-12-22T06:30:11.412Z,100125.34
2022-12-22T06:31:43.545Z,100127.22
2022-12-22T06:33:15.741Z,100119.94
2022-12-22T06:34:47.839Z,100120.88
2022-12-22T06:36:20.135Z,100125.28
2022-12-22T06:37:52.123Z,100119.56
2022-12-22T06:39:26.575Z,100117.47
2022-12-22T06:40:58.584Z,100119.19
2022-12-22T06:42:49.390Z,100118.47
2022-12-22T06:44:21.463Z,100111.91
2022-12-22T06:45:54.167Z,100126.59
2022-12-22T06:47:26.206Z,100123.44
2022-12-22T06:48:58.211Z,100125.34
2022-12-22T06:50:30.579Z,100123.16
2022-12-22T06:52:02.571Z,100128.47
2022-12-22T06:55:07.903Z,100121.47
2022-12-22T06:56:40.040Z,100119.97
2022-12-22T06:58:12.271Z,100129.56
2022-12-22T06:59:44.326Z,100123.00
2022-12-22T07:01:16.586Z,100123.31
2022-12-22T07:02:48.900Z,100121.03
2022-12-22T07:04:21.898Z,100121.25
2022-12-22T07:05:53.972Z,100123.19
2022-12-22T07:07:26.140Z,100123.44
2022-12-22T07:08:58.196Z,100123.66
2022-12-22T07:10:48.792Z,100127.31
2022-12-22T07:12:20.778Z,100115.69
2022-12-22T07:13:52.968Z,100114.16
2022-12-22T07:15:24.983Z,100124.63
2022-12-22T07:16:56.998Z,100113.91
2022-12-22T07:18:33.940Z,100118.44
2022-12-22T07:20:06.375Z,100121.06
2022-12-22T07:21:38.381Z,100121.41
2022-12-22T07:24:50.611Z,100123.50
2022-12-22T07:26:22.770Z,100123.78
2022-12-22T07:27:54.837Z,100112.16
2022-12-22T07:29:26.930Z,100103.84
2022-12-22T07:30:59.007Z,100112.72
2022-12-22T07:32:31.043Z,100113.81
2022-12-22T07:34:03.161Z,100108.13
2022-12-22T07:35:35.230Z,100105.81
2022-12-22T07:37:07.343Z,100100.78
2022-12-22T07:38:42.823Z,100105.50
2022-12-22T07:40:15.266Z,100106.44
2022-12-22T07:42:25.929Z,100104.16
2022-12-22T07:44:02.538Z,100102.00
2022-12-22T07:45:34.863Z,100101.28
2022-12-22T07:47:06.982Z,100103.22
2022-12-22T07:48:57.808Z,100100.84
2022-12-22T07:50:30.006Z,100098.53
2022-12-22T07:52:02.043Z,100082.28
2022-12-22T07:53:35.402Z,100098.97
2022-12-22T07:55:08.326Z,100102.56
2022-12-22T07:58:25.896Z,100098.78
2022-12-22T07:59:57.918Z,100093.94
2022-12-22T08:01:30.081Z,100092.56
2022-12-22T08:03:02.958Z,100089.38
2022-12-22T08:04:35.213Z,100095.53
2022-12-22T08:06:07.747Z,100082.25
2022-12-22T08:07:39.946Z,100082.41
2022-12-22T08:09:15.848Z,100081.91
2022-12-22T08:10:47.878Z,100076.84
2022-12-22T08:12:20.129Z,100080.53
2022-12-22T08:13:57.372Z,100089.19
2022-12-22T08:15:33.351Z,100086.88
2022-12-22T08:17:05.485Z,100080.28
2022-12-22T08:18:38.335Z,100089.06
2022-12-22T08:20:10.800Z,100082.41
2022-12-22T08:21:48.556Z,100080.94
2022-12-22T08:23:24.437Z,100081.25
2022-12-22T08:24:57.390Z,100077.22
2022-12-22T08:26:33.497Z,100080.91
2022-12-22T08:28:05.510Z,100081.94
2022-12-22T08:29:42.658Z,100082.22
2022-12-22T08:31:14.811Z,100085.72
2022-12-22T08:32:49.527Z,100087.63
2022-12-22T08:34:21.790Z,100090.28
2022-12-22T08:35:56.000Z,100085.38
2022-12-22T08:37:29.980Z,100079.63
2022-12-22T08:39:02.199Z,100078.00
2022-12-22T08:40:34.487Z,100078.97
2022-12-22T08:42:08.255Z,100087.69
2022-12-22T08:43:40.394Z,100085.22
2022-12-22T08:45:14.861Z,100081.19
2022-12-22T08:46:47.776Z,100072.75
2022-12-22T08:48:19.828Z,100066.84
2022-12-22T08:49:51.946Z,100066.13
2022-12-22T08:51:24.027Z,100073.06
2022-12-22T08:53:06.690Z,100075.00
2022-12-22T08:54:38.825Z,100069.03
2022-12-22T08:56:10.845Z,100068.22
2022-12-22T08:57:42.859Z,100064.97
2022-12-22T08:59:15.176Z,100059.06
2022-12-22T09:00:47.401Z,100055.69
2022-12-22T09:02:19.472Z,100048.84
2022-12-22T09:03:52.829Z,100052.38
2022-12-22T09:05:25.012Z,100050.69
2022-12-22T09:06:57.015Z,100045.63
2022-12-22T09:08:29.256Z,100049.13
2022-12-22T09:10:01.458Z,100045.78
2022-12-22T09:11:34.203Z,100046.69
2022-12-22T09:13:06.297Z,100041.59
2022-12-22T09:14:38.380Z,100037.41
2022-12-22T09:16:10.849Z,100032.34
2022-12-22T09:17:44.012Z,100046.09
2022-12-22T09:19:16.113Z,100035.94
2022-12-22T09:20:48.217Z,100029.19
2022-12-22T09:22:26.755Z,100031.81
2022-12-22T09:24:00.376Z,100031.03
2022-12-22T09:27:06.894Z,100028.63
2022-12-22T09:28:41.688Z,100016.66
2022-12-22T09:30:17.410Z,100017.56
2022-12-22T09:31:49.507Z,100020.22
2022-12-22T09:33:21.630Z,100019.38
2022-12-22T09:34:53.637Z,100017.75
2022-12-22T09:36:30.730Z,100013.56
2022-12-22T09:38:02.819Z,100016.97
2022-12-22T09:39:34.790Z,100010.19
2022-12-22T09:41:29.478Z,100015.44
2022-12-22T09:43:01.793Z,100017.16
2022-12-22T09:44:36.761Z,100009.56
2022-12-22T09:46:19.124Z,100012.19
2022-12-22T09:47:55.373Z,100009.63
2022-12-22T09:49:28.041Z,100011.47
2022-12-22T09:51:02.246Z,100007.25
2022-12-22T09:52:34.292Z,100007.31
2022-12-22T09:54:06.474Z,100000.53
2022-12-22T09:55:42.347Z,99995.47
2022-12-22T09:57:14.494Z,99995.50
2022-12-22T09:58:47.562Z,99989.53
2022-12-22T10:00:22.801Z,99983.59
2022-12-22T10:02:20.477Z,99987.97
2022-12-22T10:04:01.187Z,99982.03
2022-12-22T10:05:38.642Z,99976.94
2022-12-22T10:07:33.725Z,99965.88
2022-12-22T10:12:59.502Z,99958.25
2022-12-22T10:14:34.899Z,99960.81
2022-12-22T10:16:20.213Z,99952.28
2022-12-22T10:18:09.463Z,99950.63
2022-12-22T10:19:41.864Z,99945.47
2022-12-22T10:21:15.775Z,99950.63
2022-12-22T10:22:51.258Z,99936.06
2022-12-22T10:24:36.104Z,99936.94
2022-12-22T10:26:28.197Z,99936.09
2022-12-22T10:28:13.028Z,99936.94
2022-12-22T10:29:45.185Z,99933.53
2022-12-22T10:31:26.722Z,99942.13
2022-12-22T10:33:15.691Z,99932.69
2022-12-22T10:35:06.287Z,99924.97
2022-12-22T10:36:41.870Z,99928.41
2022-12-22T10:38:21.243Z,99925.84
2022-12-22T10:39:54.194Z,99930.13
2022-12-22T10:41:29.377Z,99926.69
2022-12-22T10:43:02.658Z,99918.09
2022-12-22T10:44:35.939Z,99913.78
2022-12-22T10:46:08.126Z,99910.34
2022-12-22T10:47:47.554Z,99909.44
2022-12-22T10:49:25.666Z,99906.03
2022-12-22T10:50:58.537Z,99902.56
2022-12-22T10:52:32.355Z,99905.97
2022-12-22T10:54:04.873Z,99904.22
2022-12-22T10:55:39.465Z,99902.47
2022-12-22T10:57:14.089Z,99897.31
2022-12-22T10:58:56.100Z,99898.97
2022-12-22T11:00:30.007Z,99898.94
2022-12-22T11:02:23.209Z,99897.19
2022-12-22T11:03:55.465Z,99891.19
2022-12-22T11:05:28.293Z,99896.28
2022-12-22T11:07:00.633Z,99885.97
2022-12-22T11:08:32.737Z,99892.75
2022-12-22T11:10:23.534Z,99889.09
2022-12-22T11:12:09.428Z,99876.94
2022-12-22T11:13:53.583Z,99881.13
2022-12-22T11:15:38.108Z,99888.69
2022-12-22T11:17:28.106Z,99880.03
2022-12-22T11:19:03.969Z,99877.41
2022-12-22T11:21:04.043Z,99875.59
2022-12-22T11:22:44.769Z,99869.53
2022-12-22T11:24:41.096Z,99873.81
2022-12-22T11:26:23.315Z,99866.94
2022-12-22T11:28:27.290Z,99870.38
2022-12-22T11:30:03.584Z,99864.31
2022-12-22T11:31:57.502Z,99862.50
2022-12-22T11:33:35.327Z,99872.81
2022-12-22T11:35:58.561Z,99865.81
2022-12-22T11:37:45.399Z,99866.53
2022-12-22T11:39:26.602Z,99856.94
2022-12-22T11:41:16.531Z,99857.63
2022-12-22T11:43:03.498Z,99863.53
2022-12-22T11:44:38.877Z,99847.09
2022-12-22T11:46:31.614Z,99853.94
2022-12-22T11:48:22.304Z,99846.94
2022-12-22T11:51:50.140Z,99846.81
2022-12-22T11:53:47.260Z,99844.09
2022-12-22T11:55:22.143Z,99844.91
2022-12-22T11:57:10.558Z,99830.16
2022-12-22T11:59:01.157Z,99830.88
2022-12-22T12:01:12.175Z,99832.56
2022-12-22T12:02:54.088Z,99837.63
2022-12-22T12:04:56.843Z,99833.97
2022-12-22T12:06:31.798Z,99834.69
2022-12-22T12:08:29.892Z,99832.81
2022-12-22T12:10:22.638Z,99831.84
2022-12-22T12:12:21.670Z,99830.16
2022-12-22T12:14:14.018Z,99825.81
2022-12-22T12:16:04.645Z,99824.06
2022-12-22T12:18:27.093Z,99818.03
2022-12-22T12:20:08.486Z,99822.19
2022-12-22T12:21:53.112Z,99822.06
2022-12-22T12:23:43.018Z,99829.63
2022-12-22T12:25:44.123Z,99833.00
2022-12-22T12:27:35.011Z,99826.91
2022-12-22T12:29:27.985Z,99818.19
2022-12-22T12:31:01.520Z,99819.94
2022-12-22T12:32:58.271Z,99814.91
2022-12-22T12:34:33.230Z,99814.91
2022-12-22T12:36:24.827Z,99815.59
2022-12-22T12:40:40.101Z,99805.94
2022-12-22T12:42:31.872Z,99804.94
2022-12-22T12:44:04.314Z,99808.41
2022-12-22T12:45:44.523Z,99797.94
2022-12-22T12:47:30.042Z,99792.06
2022-12-22T12:49:02.161Z,99800.78
2022-12-22T12:50:35.367Z,99796.28
2022-12-22T12:52:08.872Z,99798.78
2022-12-22T12:53:40.727Z,99794.31
2022-12-22T12:55:53.407Z,99802.09
2022-12-22T12:57:27.887Z,99794.34
2022-12-22T13:50:28.062Z,99796.69
2022-12-22T13:52:05.235Z,99786.56
2022-12-22T13:54:07.062Z,99795.25
2022-12-22T13:55:33.753Z,99787.69
2022-12-22T13:57:15.611Z,99785.22
2022-12-22T13:58:52.508Z,99786.22
2022-12-22T14:00:26.773Z,99781.19
2022-12-22T14:02:17.724Z,99780.38
2022-12-22T14:04:01.349Z,99779.75
2022-12-22T14:05:34.605Z,99784.28
2022-12-22T14:07:13.028Z,99786.09
2022-12-22T14:08:45.216Z,99786.25
2022-12-22T14:10:26.758Z,99787.94
2022-12-22T14:12:13.632Z,99788.91
2022-12-22T14:13:45.906Z,99793.38
2022-12-22T14:15:19.991Z,99789.97
2022-12-22T14:16:54.417Z,99793.53
2022-12-22T14:18:27.285Z,99794.50
2022-12-22T14:20:01.172Z,99788.53
2022-12-22T14:21:33.233Z,99786.06
2022-12-22T14:23:08.412Z,99794.72
2022-12-22T14:24:49.426Z,99793.00
2022-12-22T14:26:26.429Z,99792.22
2022-12-22T14:27:59.106Z,99792.31
2022-12-22T14:29:31.422Z,99793.25
2022-12-22T14:31:04.710Z,99783.00
2022-12-22T14:32:42.186Z,99785.69
2022-12-22T14:34:25.979Z,99787.53
2022-12-22T14:36:24.223Z,99786.78
2022-12-22T14:38:19.751Z,99787.75
2022-12-22T14:39:57.879Z,99785.31
2022-12-22T14:41:42.278Z,99792.28
2022-12-22T14:43:27.228Z,99784.59
2022-12-22T14:45:00.061Z,99790.72
2022-12-22T14:46:38.402Z,99794.22
2022-12-22T14:48:18.898Z,99792.53
2022-12-22T14:50:04.774Z,99790.91
2022-12-22T14:51:36.965Z,99792.72
2022-12-22T14:53:13.469Z,99791.88
2022-12-22T14:54:50.937Z,99784.22
2022-12-22T14:56:23.172Z,99792.06
2022-12-22T14:58:11.804Z,99792.09
2022-12-22T15:00:01.470Z,99797.28
2022-12-22T15:01:33.612Z,99798.28
2022-12-22T15:03:25.923Z,99799.16
2022-12-22T15:05:35.710Z,99800.09
2022-12-22T15:07:45.725Z,99803.59
2022-12-22T15:10:03.739Z,99798.47
2022-12-22T15:11:18.641Z,99795.13
2022-12-22T15:12:51.736Z,99799.47
2022-12-22T15:14:26.216Z,99795.19
2022-12-22T15:15:58.258Z,99800.41
2022-12-22T15:17:30.311Z,99793.59
2022-12-22T15:19:02.377Z,99793.63
2022-12-22T15:20:39.197Z,99797.09
2022-12-22T15:22:12.662Z,99796.25
2022-12-22T15:23:44.986Z,99801.44
2022-12-22T15:25:19.772Z,99801.50
2022-12-22T15:26:52.033Z,99798.91
2022-12-22T15:28:24.355Z,99801.50
2022-12-22T15:29:56.468Z,99807.50
2022-12-22T15:31:28.526Z,99804.09
2022-12-22T15:33:00.792Z,99804.97
2022-12-22T15:34:33.213Z,99803.25
2022-12-22T15:36:06.502Z,99804.97
2022-12-22T15:37:38.513Z,99807.53
2022-12-22T15:39:20.459Z,99812.69
2022-12-22T15:40:52.939Z,99806.69
2022-12-22T15:42:25.033Z,99810.09
2022-12-22T15:43:58.781Z,99813.50
2022-12-22T15:45:31.302Z,99816.91
2022-12-22T15:47:03.380Z,99816.03
2022-12-22T15:48:37.124Z,99816.88
2022-12-22T15:50:14.786Z,99822.84
2022-12-22T15:51:53.803Z,99823.69
2022-12-22T15:53:25.869Z,99825.34
2022-12-22T15:54:58.299Z,99820.19
2022-12-22T15:56:32.471Z,99819.31
2022-12-22T15:58:04.688Z,99826.97
2022-12-22T15:59:36.768Z,99826.94
2022-12-22T16:01:12.086Z,99825.22
2022-12-22T16:02:44.392Z,99827.72
2022-12-22T16:04:17.377Z,99820.84
2022-12-22T16:05:49.405Z,99835.41
2022-12-22T16:07:21.545Z,99825.09
2022-12-22T16:08:53.922Z,99826.78
2022-12-22T16:10:28.091Z,99819.00
2022-12-22T16:12:00.223Z,99825.84
2022-12-22T16:13:32.517Z,99827.50
2022-12-22T16:15:04.875Z,99825.75
2022-12-22T16:16:37.087Z,99830.00
2022-12-22T16:18:11.673Z,99829.16
2022-12-22T16:19:45.544Z,99827.38
2022-12-22T16:23:06.923Z,99824.75
2022-12-22T16:24:39.827Z,99831.50
2022-12-22T16:26:17.280Z,99831.50
2022-12-22T16:27:49.856Z,99828.81
2022-12-22T16:29:23.101Z,99832.22
2022-12-22T16:30:55.181Z,99828.75
2022-12-22T16:32:32.367Z,99832.13
2022-12-22T16:34:05.129Z,99832.91
2022-12-22T16:35:37.321Z,99828.59
2022-12-22T16:37:09.526Z,99824.31
2022-12-22T16:38:41.757Z,99820.78
2022-12-22T16:40:13.993Z,99823.34
2022-12-22T16:41:46.129Z,99820.75
2022-12-22T16:43:49.136Z,99830.94
2022-12-22T16:45:27.342Z,99823.19
2022-12-22T16:46:59.525Z,99824.78
2022-12-22T16:48:35.579Z,99821.31
2022-12-22T16:50:17.611Z,99823.84
2022-12-22T16:51:53.984Z,99832.34
2022-12-22T16:53:26.043Z,99826.25
2022-12-22T16:54:58.228Z,99828.81
2022-12-22T16:56:31.640Z,99829.69
2022-12-22T16:58:13.012Z,99833.06
2022-12-22T16:59:45.845Z,99823.66
2022-12-22T17:01:22.781Z,99827.94
2022-12-22T17:03:13.952Z,99824.44
2022-12-22T17:04:46.200Z,99829.41
2022-12-22T17:06:19.488Z,99819.97
2022-12-22T17:07:51.761Z,99819.91
2022-12-22T17:09:28.282Z,99826.69
2022-12-22T17:11:10.115Z,99830.03
2022-12-22T17:12:43.176Z,99842.69
2022-12-22T17:14:18.187Z,99832.44
2022-12-22T17:15:50.240Z,99831.47
2022-12-22T17:17:30.365Z,99835.69
2022-12-22T17:19:06.402Z,99830.56
2022-12-22T17:20:38.609Z,99838.09
2022-12-22T17:22:29.900Z,99831.34
2022-12-22T17:24:05.040Z,99839.75
2022-12-22T17:25:37.102Z,99835.44
2022-12-22T17:27:11.778Z,99829.38
2022-12-22T17:28:44.251Z,99831.00
2022-12-22T17:30:22.345Z,99838.59
2022-12-22T17:31:57.060Z,99843.56
2022-12-22T17:33:29.367Z,99842.59
2022-12-22T17:35:01.453Z,99839.97
2022-12-22T17:36:37.777Z,99847.66
2022-12-22T17:38:18.223Z,99839.13
2022-12-22T17:40:01.633Z,99844.22
2022-12-22T17:41:33.811Z,99844.97
2022-12-22T17:43:05.883Z,99842.38
2022-12-22T17:44:38.003Z,99844.03
2022-12-22T17:46:15.435Z,99852.59
2022-12-22T17:47:50.774Z,99838.06
2022-12-22T17:49:22.961Z,99837.16
2022-12-22T17:50:57.875Z,99837.97
2022-12-22T17:52:30.374Z,99837.94
2022-12-22T17:54:02.651Z,99837.94
2022-12-22T17:56:07.135Z,99836.25
2022-12-22T17:57:30.726Z,99843.13
2022-12-22T17:59:02.901Z,99843.88
2022-12-22T18:00:35.248Z,99835.34
2022-12-22T18:02:17.311Z,99831.13
2022-12-22T18:03:49.724Z,99829.34
2022-12-22T18:05:24.114Z,99831.06
2022-12-22T18:06:56.402Z,99831.88
2022-12-22T18:08:28.483Z,99829.28
2022-12-22T18:10:01.285Z,99828.50
2022-12-22T18:11:34.073Z,99828.47
2022-12-22T18:13:17.865Z,99825.00
2022-12-22T18:14:49.989Z,99821.53
2022-12-22T18:16:23.399Z,99824.88
2022-12-22T18:17:55.966Z,99829.13
2022-12-22T18:19:28.127Z,99826.50
2022-12-22T18:22:35.050Z,99825.66
2022-12-22T18:24:10.164Z,99823.06
2022-12-22T18:25:42.322Z,99823.97
2022-12-22T18:27:14.566Z,99829.06
2022-12-22T18:28:46.843Z,99830.72
2022-12-22T18:30:24.339Z,99830.81
2022-12-22T18:31:56.502Z,99819.59
2022-12-22T18:33:28.702Z,99823.88
2022-12-22T18:35:00.826Z,99828.94
2022-12-22T18:36:34.510Z,99830.66
2022-12-22T18:38:18.866Z,99833.19
2022-12-22T18:39:50.996Z,99833.97
2022-12-22T18:41:24.524Z,99833.16
2022-12-22T18:42:56.834Z,99835.75
2022-12-22T18:44:31.161Z,99834.81
2022-12-22T18:46:03.288Z,99834.72
2022-12-22T18:47:35.608Z,99838.16
2022-12-22T18:49:07.782Z,99837.25
2022-12-22T18:52:21.038Z,99833.94
2022-12-22T18:53:54.115Z,99841.56
2022-12-22T18:55:28.232Z,99840.66
2022-12-22T18:57:00.397Z,99842.28
2022-12-22T18:58:32.467Z,99836.34
2022-12-22T19:00:11.502Z,99837.19
2022-12-22T19:01:45.773Z,99838.88
2022-12-22T19:03:23.413Z,99835.53
2022-12-22T19:04:56.748Z,99834.72
2022-12-22T19:06:28.981Z,99834.63
2022-12-22T19:08:01.108Z,99827.75
2022-12-22T19:09:33.133Z,99832.06
2022-12-22T19:11:06.994Z,99827.78
2022-12-22T19:12:39.012Z,99827.75
2022-12-22T19:14:17.429Z,99825.28
2022-12-22T19:15:49.851Z,99830.31
2022-12-22T19:17:25.244Z,99830.31
2022-12-22T19:18:58.187Z,99837.06
2022-12-22T19:20:30.198Z,99834.44
2022-12-22T19:22:02.244Z,99838.72
2022-12-22T19:23:34.309Z,99842.16
2022-12-22T19:25:06.491Z,99837.06
2022-12-22T19:26:39.027Z,99841.34
2022-12-22T19:28:31.845Z,99845.72
2022-12-22T19:30:05.082Z,99837.91
2022-12-22T19:31:38.402Z,99838.75
2022-12-22T19:33:19.150Z,99831.06
2022-12-22T19:34:51.519Z,99835.25
2022-12-22T19:36:26.402Z,99836.94
2022-12-22T19:38:01.000Z,99833.50
2022-12-22T19:39:33.083Z,99834.25
2022-12-22T19:41:05.673Z,99827.44
2022-12-22T19:42:38.050Z,99830.81
2022-12-22T19:44:28.074Z,99834.31
2022-12-22T19:46:00.265Z,99841.88
2022-12-22T19:47:35.339Z,99835.97
2022-12-22T19:49:14.742Z,99838.47
2022-12-22T19:50:47.633Z,99838.47
2022-12-22T19:52:19.585Z,99838.38
2022-12-22T19:55:33.116Z,99840.91
2022-12-22T19:57:07.475Z,99846.13
2022-12-22T19:58:40.511Z,99852.00
2022-12-22T20:00:21.195Z,99850.34
2022-12-22T20:01:53.525Z,99849.34
2022-12-22T20:03:26.246Z,99851.09
2022-12-22T20:04:59.039Z,99851.91
2022-12-22T20:06:31.211Z,99853.59
2022-12-22T20:08:03.510Z,99845.91
2022-12-22T20:09:35.551Z,99850.13
2022-12-22T20:11:17.641Z,99850.13
2022-12-22T20:12:52.032Z,99847.47
2022-12-22T20:14:24.157Z,99846.53
2022-12-22T20:15:56.273Z,99843.94
2022-12-22T20:17:28.283Z,99847.34
2022-12-22T20:19:00.233Z,99844.81
2022-12-22T20:20:34.834Z,99845.75
2022-12-22T20:22:06.921Z,99839.75
2022-12-22T20:23:39.672Z,99849.13
2022-12-22T20:25:19.045Z,99843.31
2022-12-22T20:26:54.515Z,99843.25